createdAt,value
2019-04-27T00:00:41.069Z,15.00
2019-04-27T00:03:13.218Z,15.00
2019-04-27T00:05:45.983Z,15.00
2019-04-27T00:08:38.598Z,15.00
2019-04-27T00:11:10.674Z,14.90
2019-04-27T00:13:40.597Z,14.80
2019-04-27T00:16:11.319Z,14.80
2019-04-27T00:18:49.807Z,14.80
2019-04-27T00:21:20.443Z,14.70
2019-04-27T00:23:58.017Z,14.70
2019-04-27T00:26:26.618Z,14.60
2019-04-27T00:28:55.251Z,14.60
2019-04-27T00:31:23.990Z,14.60
2019-04-27T00:33:53.613Z,14.50
2019-04-27T00:36:35.081Z,14.50
2019-04-27T00:39:06.479Z,14.50
2019-04-27T00:41:35.116Z,14.50
2019-04-27T00:44:04.331Z,14.40
2019-04-27T00:46:33.137Z,14.30
2019-04-27T00:49:03.574Z,14.30
2019-04-27T00:51:33.283Z,14.20
2019-04-27T00:54:02.249Z,14.20
2019-04-27T00:56:38.347Z,14.20
2019-04-27T00:59:20.667Z,14.10
2019-04-27T01:02:07.534Z,14.10
2019-04-27T01:04:36.926Z,14.10
2019-04-27T01:07:06.473Z,14.00
2019-04-27T01:09:35.722Z,13.90
2019-04-27T01:12:04.741Z,13.90
2019-04-27T01:14:34.245Z,13.90
2019-04-27T01:17:03.066Z,13.90
2019-04-27T01:19:31.710Z,13.80
2019-04-27T01:22:00.326Z,13.80
2019-04-27T01:24:30.375Z,13.70
2019-04-27T01:27:03.710Z,13.60
2019-04-27T01:29:34.025Z,13.60
2019-04-27T01:32:03.117Z,13.50
2019-04-27T01:34:31.888Z,13.50
2019-04-27T01:37:00.517Z,13.50
2019-04-27T01:39:29.093Z,13.50
2019-04-27T01:41:59.070Z,13.50
2019-04-27T01:44:29.558Z,13.50
2019-04-27T01:46:59.772Z,13.40
2019-04-27T01:49:29.542Z,13.30
2019-04-27T01:51:59.422Z,13.20
2019-04-27T01:54:29.542Z,13.20
2019-04-27T01:57:00.701Z,13.20
2019-04-27T01:59:29.955Z,13.10
2019-04-27T02:02:06.681Z,13.10
2019-04-27T02:04:37.022Z,13.20
2019-04-27T02:07:09.085Z,13.10
2019-04-27T02:09:38.658Z,13.20
2019-04-27T02:12:09.244Z,13.20
2019-04-27T02:14:38.945Z,13.30
2019-04-27T02:17:09.718Z,13.20
2019-04-27T02:19:39.271Z,13.20
2019-04-27T02:22:08.674Z,13.10
2019-04-27T02:24:38.988Z,13.10
2019-04-27T02:27:08.947Z,13.10
2019-04-27T02:29:41.965Z,13.10
2019-04-27T02:32:23.394Z,13.00
2019-04-27T02:35:00.144Z,13.00
2019-04-27T02:37:30.451Z,13.00
2019-04-27T02:40:00.154Z,12.90
2019-04-27T02:42:31.008Z,12.90
2019-04-27T02:44:59.914Z,12.80
2019-04-27T02:47:30.356Z,12.80
2019-04-27T02:50:00.629Z,12.80
2019-04-27T02:52:30.886Z,12.80
2019-04-27T02:54:59.579Z,12.90
2019-04-27T02:57:30.159Z,12.80
2019-04-27T02:59:59.991Z,12.90
2019-04-27T03:02:30.645Z,12.90
2019-04-27T03:05:00.669Z,12.90
2019-04-27T03:07:30.350Z,12.80
2019-04-27T03:10:01.641Z,12.80
2019-04-27T03:12:31.387Z,12.90
2019-04-27T03:15:01.779Z,12.80
2019-04-27T03:17:32.054Z,12.80
2019-04-27T03:20:11.414Z,12.80
2019-04-27T03:22:41.756Z,12.80
2019-04-27T03:25:15.345Z,12.80
2019-04-27T03:27:45.108Z,12.80
2019-04-27T03:30:15.666Z,12.80
2019-04-27T03:32:44.796Z,12.80
2019-04-27T03:35:14.003Z,12.80
2019-04-27T03:37:43.069Z,12.80
2019-04-27T03:40:11.852Z,12.90
2019-04-27T03:42:42.201Z,12.90
2019-04-27T03:45:11.152Z,13.00
2019-04-27T03:47:40.841Z,13.00
2019-04-27T03:50:12.278Z,13.10
2019-04-27T03:52:49.947Z,13.10
2019-04-27T03:55:39.761Z,13.10
2019-04-27T03:58:24.776Z,13.20
2019-04-27T04:00:54.626Z,13.30
2019-04-27T04:03:23.323Z,13.30
2019-04-27T04:05:52.263Z,13.40
2019-04-27T04:08:21.076Z,13.50
2019-04-27T04:10:53.898Z,13.50
2019-04-27T04:13:26.125Z,13.60
2019-04-27T04:16:07.318Z,13.60
2019-04-27T04:18:53.851Z,13.70
2019-04-27T04:21:22.537Z,13.80
2019-04-27T04:23:51.211Z,13.80
2019-04-27T04:26:19.801Z,13.90
2019-04-27T04:28:50.049Z,13.90
2019-04-27T04:31:20.916Z,14.00
2019-04-27T04:33:49.360Z,14.00
2019-04-27T04:36:20.093Z,14.10
2019-04-27T04:38:50.470Z,14.10
2019-04-27T04:41:27.139Z,14.20
2019-04-27T04:44:13.623Z,14.30
2019-04-27T04:47:00.555Z,14.30
2019-04-27T04:49:29.741Z,14.30
2019-04-27T04:51:59.464Z,14.40
2019-04-27T04:54:30.047Z,14.50
2019-04-27T04:56:59.460Z,14.60
2019-04-27T04:59:29.121Z,14.60
2019-04-27T05:02:01.832Z,14.70
2019-04-27T05:04:29.153Z,14.80
2019-04-27T05:06:59.175Z,14.80
2019-04-27T05:09:29.598Z,14.90
2019-04-27T05:11:58.821Z,15.00
2019-04-27T05:14:28.868Z,15.10
2019-04-27T05:16:59.188Z,15.10
2019-04-27T05:19:28.939Z,15.20
2019-04-27T05:21:59.182Z,15.30
2019-04-27T05:24:29.270Z,15.40
2019-04-27T05:26:59.087Z,15.50
2019-04-27T05:29:29.282Z,15.60
2019-04-27T05:31:59.250Z,15.70
2019-04-27T05:34:29.435Z,15.80
2019-04-27T05:36:59.336Z,15.90
2019-04-27T05:39:29.943Z,16.00
2019-04-27T05:41:59.768Z,16.10
2019-04-27T05:44:39.728Z,16.20
2019-04-27T05:47:16.654Z,16.30
2019-04-27T05:49:45.392Z,16.40
2019-04-27T05:52:29.897Z,16.50
2019-04-27T05:54:59.352Z,16.60
2019-04-27T05:57:28.781Z,16.60
2019-04-27T06:00:01.027Z,16.70
2019-04-27T06:02:30.362Z,16.80
2019-04-27T06:04:59.997Z,16.90
2019-04-27T06:07:29.584Z,16.90
2019-04-27T06:09:59.863Z,17.00
2019-04-27T06:12:29.691Z,17.10
2019-04-27T06:14:59.975Z,17.10
2019-04-27T06:17:30.026Z,17.30
2019-04-27T06:19:59.711Z,17.40
2019-04-27T06:22:29.318Z,17.40
2019-04-27T06:25:00.132Z,17.50
2019-04-27T06:27:30.566Z,17.60
2019-04-27T06:29:59.534Z,17.80
2019-04-27T06:32:29.605Z,17.90
2019-04-27T06:34:59.217Z,18.00
2019-04-27T06:37:29.450Z,18.00
2019-04-27T06:39:59.631Z,18.10
2019-04-27T06:42:29.624Z,18.20
2019-04-27T06:44:59.874Z,18.30
2019-04-27T06:47:29.681Z,18.40
2019-04-27T06:49:58.855Z,18.50
2019-04-27T06:52:29.100Z,18.70
2019-04-27T06:54:57.793Z,18.80
2019-04-27T06:57:26.403Z,18.90
2019-04-27T06:59:55.074Z,19.00
2019-04-27T07:02:23.849Z,19.20
2019-04-27T07:04:53.477Z,19.30
2019-04-27T07:07:22.363Z,19.40
2019-04-27T07:09:51.033Z,19.50
2019-04-27T07:12:19.572Z,19.50
2019-04-27T07:14:54.337Z,19.60
2019-04-27T07:17:19.125Z,19.70
2019-04-27T07:19:49.647Z,19.90
2019-04-27T07:22:20.069Z,19.90
2019-04-27T07:24:49.154Z,20.00
2019-04-27T07:27:19.089Z,20.10
2019-04-27T07:29:49.514Z,20.20
2019-04-27T07:32:19.288Z,20.30
2019-04-27T07:34:49.637Z,20.40
2019-04-27T07:37:19.584Z,20.40
2019-04-27T07:39:49.203Z,20.50
2019-04-27T07:42:20.819Z,20.60
2019-04-27T07:45:02.008Z,20.70
2019-04-27T07:47:41.162Z,20.80
2019-04-27T07:50:10.477Z,21.00
2019-04-27T07:52:40.557Z,21.00
2019-04-27T07:55:09.564Z,21.10
2019-04-27T07:57:39.993Z,21.20
2019-04-27T08:00:10.328Z,21.20
2019-04-27T08:02:39.142Z,21.40
2019-04-27T08:05:09.346Z,21.50
2019-04-27T08:07:39.172Z,21.50
2019-04-27T08:10:09.719Z,21.60
2019-04-27T08:12:38.751Z,21.80
2019-04-27T08:15:08.931Z,22.00
2019-04-27T08:17:42.428Z,22.10
2019-04-27T08:20:09.267Z,22.30
2019-04-27T08:22:38.920Z,22.40
2019-04-27T08:25:09.577Z,22.50
2019-04-27T08:27:42.546Z,22.70
2019-04-27T08:30:13.305Z,22.80
2019-04-27T08:32:46.262Z,22.90
2019-04-27T08:35:15.176Z,23.00
2019-04-27T08:37:45.372Z,23.10
2019-04-27T08:40:14.583Z,23.10
2019-04-27T08:42:43.249Z,23.10
2019-04-27T08:45:11.979Z,23.20
2019-04-27T08:47:41.790Z,23.30
2019-04-27T08:50:10.810Z,23.40
2019-04-27T08:52:41.930Z,23.50
2019-04-27T08:55:11.668Z,23.40
2019-04-27T08:57:40.368Z,23.50
2019-04-27T09:00:09.629Z,23.70
2019-04-27T09:02:44.541Z,23.70
2019-04-27T09:05:09.615Z,23.80
2019-04-27T09:07:40.080Z,23.90
2019-04-27T09:10:10.867Z,24.30
2019-04-27T09:12:58.862Z,25.40
2019-04-27T09:15:29.438Z,26.90
2019-04-27T09:17:59.095Z,28.60
2019-04-27T09:20:32.188Z,29.80
2019-04-27T09:23:00.947Z,30.60
2019-04-27T09:25:29.699Z,31.30
2019-04-27T09:27:59.761Z,32.20
2019-04-27T09:30:29.824Z,32.90
2019-04-27T09:32:59.212Z,33.90
2019-04-27T09:35:28.412Z,34.70
2019-04-27T09:37:57.208Z,35.40
2019-04-27T09:40:26.743Z,36.20
2019-04-27T09:42:57.219Z,36.70
2019-04-27T09:45:27.123Z,36.80
2019-04-27T09:47:56.440Z,37.00
2019-04-27T09:50:28.003Z,36.90
2019-04-27T09:52:55.937Z,38.00
2019-04-27T09:55:26.341Z,38.40
2019-04-27T09:57:56.916Z,39.10
2019-04-27T10:00:27.785Z,39.30
2019-04-27T10:02:56.588Z,40.00
2019-04-27T10:05:26.345Z,40.80
2019-04-27T10:07:56.739Z,41.20
2019-04-27T10:10:26.790Z,41.40
2019-04-27T10:12:56.792Z,41.20
2019-04-27T10:15:26.648Z,41.60
2019-04-27T10:17:57.615Z,41.80
2019-04-27T10:20:26.232Z,42.10
2019-04-27T10:22:56.471Z,42.40
2019-04-27T10:25:26.886Z,42.50
2019-04-27T10:27:58.556Z,42.70
2019-04-27T10:30:27.766Z,42.50
2019-04-27T10:32:56.484Z,42.90
2019-04-27T10:35:26.009Z,43.10
2019-04-27T10:37:55.099Z,43.50
2019-04-27T10:40:24.194Z,43.40
2019-04-27T10:42:52.908Z,43.50
2019-04-27T10:45:21.634Z,43.40
2019-04-27T10:47:50.258Z,43.00
2019-04-27T10:50:19.081Z,42.60
2019-04-27T10:52:53.575Z,42.30
2019-04-27T10:55:18.159Z,41.50
2019-04-27T10:57:49.678Z,39.50
2019-04-27T11:00:20.281Z,37.90
2019-04-27T11:02:48.997Z,36.10
2019-04-27T11:05:25.685Z,35.60
2019-04-27T11:07:57.118Z,36.40
2019-04-27T11:10:26.063Z,37.70
2019-04-27T11:12:56.104Z,39.00
2019-04-27T11:15:26.337Z,39.70
2019-04-27T11:17:56.123Z,40.80
2019-04-27T11:20:27.521Z,41.30
2019-04-27T11:23:06.700Z,41.80
2019-04-27T11:25:26.401Z,41.80
2019-04-27T11:27:55.940Z,42.10
2019-04-27T11:30:25.874Z,42.10
2019-04-27T11:32:58.948Z,42.00
2019-04-27T11:35:26.714Z,40.90
2019-04-27T11:37:56.988Z,40.80
2019-04-27T11:40:26.451Z,40.30
2019-04-27T11:42:57.046Z,40.90
2019-04-27T11:45:26.480Z,41.50
2019-04-27T11:47:57.095Z,41.90
2019-04-27T11:50:26.294Z,42.40
2019-04-27T11:52:56.680Z,42.50
2019-04-27T11:55:27.334Z,42.50
2019-04-27T11:57:56.083Z,42.40
2019-04-27T12:00:27.529Z,42.60
2019-04-27T12:02:57.048Z,42.50
2019-04-27T12:05:26.136Z,42.80
2019-04-27T12:07:56.085Z,42.80
2019-04-27T12:10:26.274Z,43.10
2019-04-27T12:12:56.292Z,42.60
2019-04-27T12:15:26.313Z,41.30
2019-04-27T12:17:56.147Z,41.20
2019-04-27T12:20:25.801Z,41.70
2019-04-27T12:22:54.825Z,42.70
2019-04-27T12:25:23.535Z,42.80
2019-04-27T12:28:08.846Z,42.80
2019-04-27T12:30:44.941Z,43.10
2019-04-27T12:33:13.812Z,43.20
2019-04-27T12:35:42.541Z,42.30
2019-04-27T12:38:11.422Z,42.70
2019-04-27T12:40:40.148Z,42.80
2019-04-27T12:43:08.923Z,42.40
2019-04-27T12:45:40.993Z,42.00
2019-04-27T12:48:08.821Z,41.70
2019-04-27T12:50:37.792Z,41.70
2019-04-27T12:53:24.685Z,42.30
2019-04-27T12:56:20.454Z,41.60
2019-04-27T12:58:53.769Z,41.70
2019-04-27T13:01:25.854Z,41.70
2019-04-27T13:03:58.579Z,42.60
2019-04-27T14:23:28.497Z,42.30
2019-04-27T14:25:58.520Z,42.00
2019-04-27T14:28:28.970Z,41.30
2019-04-27T14:30:59.022Z,41.30
2019-04-27T14:33:28.401Z,41.30
2019-04-27T14:35:59.261Z,40.90
2019-04-27T14:38:27.726Z,40.90
2019-04-27T14:40:59.361Z,40.90
2019-04-27T14:43:28.622Z,40.60
2019-04-27T14:46:00.733Z,40.50
2019-04-27T14:48:35.363Z,40.10
2019-04-27T14:51:03.978Z,39.60
2019-04-27T14:53:34.622Z,39.30
2019-04-27T14:56:03.349Z,39.20
2019-04-27T14:58:32.042Z,39.00
2019-04-27T15:01:00.807Z,39.00
2019-04-27T15:03:29.475Z,38.60
2019-04-27T15:05:58.271Z,38.70
2019-04-27T15:08:27.058Z,38.80
2019-04-27T15:10:56.650Z,38.90
2019-04-27T15:13:25.490Z,38.70
2019-04-27T15:15:54.662Z,37.90
2019-04-27T15:18:25.055Z,37.80
2019-04-27T15:20:53.790Z,37.80
2019-04-27T15:23:22.559Z,37.90
2019-04-27T15:25:51.219Z,37.90
2019-04-27T15:28:22.722Z,37.70
2019-04-27T15:30:53.321Z,37.50
2019-04-27T15:33:39.825Z,36.90
2019-04-27T15:36:19.321Z,36.20
2019-04-27T15:38:51.315Z,35.60
2019-04-27T15:41:20.011Z,34.80
2019-04-27T15:43:48.771Z,34.30
2019-04-27T15:46:18.473Z,34.30
2019-04-27T15:48:48.716Z,33.90
2019-04-27T15:51:21.044Z,33.40
2019-04-27T15:53:50.816Z,33.20
2019-04-27T15:56:21.690Z,33.00
2019-04-27T15:58:49.891Z,32.70
2019-04-27T16:01:18.622Z,32.20
2019-04-27T16:03:48.180Z,32.00
2019-04-27T16:06:19.060Z,32.00
2019-04-27T16:08:49.198Z,32.00
2019-04-27T16:11:19.781Z,31.80
2019-04-27T16:13:50.162Z,31.80
2019-04-27T16:16:19.973Z,31.70
2019-04-27T16:18:49.177Z,31.50
2019-04-27T16:21:20.095Z,31.30
2019-04-27T16:23:48.585Z,30.90
2019-04-27T16:26:18.287Z,30.70
2019-04-27T16:28:52.864Z,30.50
2019-04-27T16:31:18.599Z,30.50
2019-04-27T16:33:49.652Z,30.20
2019-04-27T16:36:19.744Z,30.00
2019-04-27T16:38:53.383Z,29.90
2019-04-27T16:41:22.124Z,29.90
2019-04-27T16:43:50.920Z,29.90
2019-04-27T16:46:21.411Z,29.90
2019-04-27T16:48:50.124Z,29.80
2019-04-27T16:51:19.102Z,29.70
2019-04-27T16:53:47.886Z,29.50
2019-04-27T16:56:20.430Z,29.50
2019-04-27T16:58:55.919Z,29.30
2019-04-27T17:01:25.927Z,29.10
2019-04-27T17:03:54.664Z,29.00
2019-04-27T17:06:23.431Z,28.60
2019-04-27T17:08:52.257Z,28.30
2019-04-27T17:11:21.084Z,28.10
2019-04-27T17:13:52.108Z,27.70
2019-04-27T17:16:31.209Z,27.30
2019-04-27T17:19:04.874Z,27.00
2019-04-27T17:21:33.278Z,26.50
2019-04-27T17:24:02.893Z,26.40
2019-04-27T17:26:31.519Z,26.20
2019-04-27T17:29:02.671Z,26.00
2019-04-27T17:31:32.922Z,25.80
2019-04-27T17:34:02.526Z,25.40
2019-04-27T17:36:31.275Z,25.00
2019-04-27T17:39:01.579Z,24.80
2019-04-27T17:41:30.398Z,24.60
2019-04-27T17:43:59.260Z,24.50
2019-04-27T17:46:28.262Z,24.40
2019-04-27T17:48:58.581Z,24.10
2019-04-27T17:51:28.580Z,23.90
2019-04-27T17:53:58.587Z,23.70
2019-04-27T17:56:35.375Z,23.50
2019-04-27T17:58:58.607Z,23.30
2019-04-27T18:01:30.170Z,23.10
2019-04-27T18:04:00.023Z,23.00
2019-04-27T18:06:29.761Z,22.80
2019-04-27T18:09:00.739Z,22.70
2019-04-27T18:11:32.903Z,22.50
2019-04-27T18:14:00.658Z,22.50
2019-04-27T18:16:33.910Z,22.40
2019-04-27T18:19:11.494Z,22.30
2019-04-27T18:21:40.063Z,22.20
2019-04-27T18:24:10.379Z,22.10
2019-04-27T18:26:48.840Z,22.10
2019-04-27T18:29:11.099Z,22.00
2019-04-27T18:31:39.852Z,22.00
2019-04-27T18:34:14.852Z,21.90
2019-04-27T18:36:43.991Z,21.80
2019-04-27T18:39:10.429Z,21.80
2019-04-27T18:41:44.407Z,21.80
2019-04-27T18:44:11.243Z,21.60
2019-04-27T18:46:40.100Z,21.50
2019-04-27T18:49:22.665Z,21.50
2019-04-27T18:52:03.725Z,21.50
2019-04-27T18:54:28.823Z,21.40
2019-04-27T18:57:02.874Z,21.40
2019-04-27T18:59:28.809Z,21.30
2019-04-27T19:01:58.036Z,21.30
2019-04-27T19:04:28.149Z,21.30
2019-04-27T19:06:59.842Z,21.20
2019-04-27T19:09:27.264Z,21.20
2019-04-27T19:11:56.745Z,21.10
2019-04-27T19:14:25.747Z,21.00
2019-04-27T19:16:54.819Z,21.00
2019-04-27T19:19:23.546Z,20.90
2019-04-27T19:21:52.251Z,20.90
2019-04-27T19:24:20.869Z,20.80
2019-04-27T19:26:53.924Z,20.80
2019-04-27T19:29:30.063Z,20.70
2019-04-27T19:32:00.374Z,20.50
2019-04-27T19:34:29.271Z,20.40
2019-04-27T19:36:59.234Z,20.40
2019-04-27T19:39:28.670Z,20.40
2019-04-27T19:42:01.425Z,20.30
2019-04-27T19:44:29.236Z,20.30
2019-04-27T19:47:00.159Z,20.20
2019-04-27T19:49:31.442Z,20.00
2019-04-27T19:51:59.404Z,19.90
2019-04-27T19:54:30.073Z,19.90
2019-04-27T19:56:59.562Z,19.80
2019-04-27T19:59:32.497Z,19.70
2019-04-27T20:02:02.903Z,19.70
2019-04-27T20:04:36.198Z,19.70
2019-04-27T20:07:05.072Z,19.60
2019-04-27T20:09:35.509Z,19.50
2019-04-27T20:12:05.278Z,19.50
2019-04-27T20:14:52.973Z,19.50
2019-04-27T20:17:22.372Z,19.50
2019-04-27T20:19:51.670Z,19.50
2019-04-27T20:22:21.228Z,19.50
2019-04-27T20:24:51.398Z,19.50
2019-04-27T20:27:21.183Z,19.50
2019-04-27T20:29:50.387Z,19.50
2019-04-27T20:32:19.107Z,19.50
2019-04-27T20:34:47.827Z,19.40
2019-04-27T20:37:16.451Z,19.40
2019-04-27T20:39:45.156Z,19.30
2019-04-27T20:42:13.877Z,19.30
2019-04-27T20:44:42.520Z,19.30
2019-04-27T20:47:11.334Z,19.20
2019-04-27T20:49:39.927Z,19.20
2019-04-27T20:52:10.934Z,19.20
2019-04-27T20:54:41.350Z,19.10
2019-04-27T20:57:11.504Z,19.10
2019-04-27T20:59:40.319Z,19.00
2019-04-27T21:02:27.148Z,19.00
2019-04-27T21:04:57.369Z,18.90
2019-04-27T21:07:42.939Z,18.90
2019-04-27T21:10:12.062Z,18.90
2019-04-27T21:12:41.566Z,18.90
2019-04-27T21:15:12.927Z,18.80
2019-04-27T21:17:42.512Z,18.80
2019-04-27T21:20:13.143Z,18.70
2019-04-27T21:22:41.776Z,18.70
2019-04-27T21:25:11.883Z,18.70
2019-04-27T21:27:41.197Z,18.60
2019-04-27T21:30:11.393Z,18.60
2019-04-27T21:32:40.232Z,18.60
2019-04-27T21:35:10.878Z,18.60
2019-04-27T21:37:40.914Z,18.60
2019-04-27T21:40:15.157Z,18.60
2019-04-27T21:42:43.846Z,18.60
2019-04-27T21:45:12.645Z,18.50
2019-04-27T21:47:43.158Z,18.40
2019-04-27T21:50:12.370Z,18.40
2019-04-27T21:52:42.696Z,18.40
2019-04-27T21:55:13.034Z,18.30
2019-04-27T21:57:41.697Z,18.30
2019-04-27T22:00:21.135Z,18.20
2019-04-27T22:02:51.211Z,18.30
2019-04-27T22:05:21.050Z,18.20
2019-04-27T22:07:49.760Z,18.10
2019-04-27T22:10:18.422Z,18.10
2019-04-27T22:12:47.136Z,18.00
2019-04-27T22:15:15.724Z,18.00
2019-04-27T22:17:44.309Z,18.00
2019-04-27T22:20:13.120Z,17.90
2019-04-27T22:22:43.825Z,17.90
2019-04-27T22:25:12.449Z,17.90
2019-04-27T22:27:41.452Z,17.80
2019-04-27T22:30:11.012Z,17.80
2019-04-27T22:32:41.382Z,17.70
2019-04-27T22:35:10.113Z,17.70
2019-04-27T22:37:38.742Z,17.60
2019-04-27T22:40:25.638Z,17.60
2019-04-27T22:42:58.687Z,17.60
2019-04-27T22:45:28.994Z,17.50
2019-04-27T22:47:57.671Z,17.50
2019-04-27T22:50:26.373Z,17.50
2019-04-27T22:52:54.950Z,17.40
2019-04-27T22:55:23.615Z,17.30
2019-04-27T22:57:53.979Z,17.30
2019-04-27T23:00:42.639Z,17.30
2019-04-27T23:03:18.492Z,17.20
2019-04-27T23:05:47.107Z,17.10
2019-04-27T23:08:15.759Z,17.10
2019-04-27T23:10:44.460Z,17.10
2019-04-27T23:13:13.344Z,17.00
2019-04-27T23:15:43.679Z,17.00
2019-04-27T23:18:12.280Z,16.90
2019-04-27T23:20:42.475Z,16.90
2019-04-27T23:23:11.454Z,16.90
2019-04-27T23:25:41.055Z,16.90
2019-04-27T23:28:10.495Z,16.80
2019-04-27T23:30:49.757Z,16.80
2019-04-27T23:33:18.453Z,16.80
2019-04-27T23:35:47.091Z,16.70
2019-04-27T23:38:18.029Z,16.70
2019-04-27T23:40:46.123Z,16.70
2019-04-27T23:43:14.702Z,16.60
2019-04-27T23:45:43.291Z,16.50
2019-04-27T23:48:12.373Z,16.50
2019-04-27T23:50:43.758Z,16.50
2019-04-27T23:53:21.722Z,16.40
2019-04-27T23:55:50.098Z,16.40
2019-04-27T23:58:18.803Z,16.30
